• Join FlightAware (Why Join?)
  • Login
  • US Flag 
06:27PM EST


 

Airport Tracker/Info


-or-


 

Live Flight TrackerFlight Track Log ✈ CSN3203 ✈ 08-Apr-2013 ✈ ZGGG / CAN - ZLXY / XIY

Flight Track Log - Related Links

Times and Time Zones

All times are in EDT time to prevent confusion due to time zone crossing. See the CSN3203 flight status page for this flight to view local times or setup timezone preferences in your user account.

Time Position Orientation Groundspeed Altitude Reporting Facility
EDT Latitude Longitude Course Direction KTS MPH feet Rate Location/Type
08:17PM 23.4926 113.2617 341° North  Level Estimated
08:18PM 23.5927 113.2247 341° North  Level Estimated
08:19PM 23.6929 113.1875 341° North  Level Estimated
08:20PM 23.7930 113.1503 341° North  Level Estimated
08:21PM 23.8931 113.1130 341° North  Level Estimated
08:22PM 23.9932 113.0757 341° North  Level Estimated
08:23PM 24.0933 113.0383 341° North  Level Estimated
08:24PM 24.1934 113.0009 341° North  Level Estimated
08:25PM 24.2935 112.9634 341° North  Level Estimated
08:26PM 24.3936 112.9258 341° North  Level Estimated
08:27PM 24.4936 112.8882 341° North  Level Estimated
08:28PM 24.5937 112.8505 341° North  Level Estimated
08:29PM 24.6938 112.8128 341° North  Level Estimated
08:30PM 24.7938 112.7750 341° North  Level Estimated
08:31PM 24.8938 112.7371 341° North  Level Estimated
08:32PM 24.9938 112.6992 341° North  Level Estimated
08:33PM 25.0938 112.6612 341° North  Level Estimated
08:34PM 25.1938 112.6232 341° North  Level Estimated
08:35PM 25.2938 112.5851 341° North  Level Estimated
08:36PM 25.3938 112.5469 341° North  Level Estimated
08:37PM 25.4938 112.5087 341° North  Level Estimated
08:38PM 25.5938 112.4704 341° North  Level Estimated
08:39PM 25.6937 112.4320 341° North  Level Estimated
08:40PM 25.7936 112.3936 341° North  Level Estimated
08:41PM 25.8936 112.3551 341° North  Level Estimated
08:42PM 25.9935 112.3165 341° North  Level Estimated
08:43PM 26.0934 112.2779 341° North  Level Estimated
08:44PM 26.1933 112.2392 341° North  Level Estimated
08:45PM 26.2932 112.2005 341° North  Level Estimated
08:46PM 26.3931 112.1617 341° North  Level Estimated
08:47PM 26.4929 112.1228 341° North  Level Estimated
08:48PM 26.5928 112.0838 341° North  Level Estimated
08:49PM 26.6926 112.0448 341° North  Level Estimated
08:50PM 26.7925 112.0057 341° North  Level Estimated
08:51PM 26.8923 111.9665 341° North  Level Estimated
08:52PM 26.9921 111.9273 341° North  Level Estimated
08:53PM 27.0919 111.8880 341° North  Level Estimated
08:54PM 27.1917 111.8486 341° North  Level Estimated
08:55PM 27.2915 111.8092 341° North  Level Estimated
08:56PM 27.3913 111.7697 341° North  Level Estimated
08:57PM 27.4910 111.7301 341° North  Level Estimated
08:58PM 27.5908 111.6905 341° North  Level Estimated
08:59PM 27.6905 111.6507 341° North  Level Estimated
09:00PM 27.7902 111.6109 341° North  Level Estimated
09:01PM 27.8899 111.5711 341° North  Level Estimated
09:02PM 27.9896 111.5311 341° North  Level Estimated
09:03PM 28.0893 111.4911 340° North  Level Estimated
09:04PM 28.1890 111.4510 340° North  Level Estimated
09:05PM 28.2887 111.4108 340° North  Level Estimated
09:06PM 28.3883 111.3706 340° North  Level Estimated
09:07PM 28.4880 111.3303 340° North  Level Estimated
09:08PM 28.5876 111.2899 340° North  Level Estimated
09:09PM 28.6872 111.2494 340° North  Level Estimated
09:10PM 28.7868 111.2088 340° North  Level Estimated
09:11PM 28.8864 111.1682 340° North  Level Estimated
09:12PM 28.9860 111.1275 340° North  Level Estimated
09:13PM 29.0856 111.0867 340° North  Level Estimated
09:14PM 29.1851 111.0459 340° North  Level Estimated
09:15PM 29.2847 111.0049 340° North  Level Estimated
09:16PM 29.3842 110.9639 340° North  Level Estimated
09:17PM 29.4837 110.9228 340° North  Level Estimated
09:18PM 29.5832 110.8816 340° North  Level Estimated
09:19PM 29.6827 110.8404 340° North  Level Estimated
09:20PM 29.7822 110.7990 340° North  Level Estimated
09:21PM 29.8817 110.7576 340° North  Level Estimated
09:22PM 29.9811 110.7161 340° North  Level Estimated
09:23PM 30.0806 110.6745 340° North  Level Estimated
09:24PM 30.1800 110.6328 340° North  Level Estimated
09:25PM 30.2794 110.5910 340° North  Level Estimated
09:26PM 30.3788 110.5492 340° North  Level Estimated
09:27PM 30.4782 110.5073 340° North  Level Estimated
09:28PM 30.5776 110.4652 340° North  Level Estimated
09:29PM 30.6770 110.4231 340° North  Level Estimated
09:30PM 30.7763 110.3810 340° North  Level Estimated
09:31PM 30.8756 110.3387 340° North  Level Estimated
09:32PM 30.9750 110.2963 340° North  Level Estimated
09:33PM 31.0743 110.2539 340° North  Level Estimated
09:34PM 31.1736 110.2113 340° North  Level Estimated
09:35PM 31.2728 110.1687 340° North  Level Estimated
09:36PM 31.3721 110.1260 340° North  Level Estimated
09:37PM 31.4714 110.0832 340° North  Level Estimated
09:38PM 31.5706 110.0403 340° North  Level Estimated
09:39PM 31.6698 109.9973 340° North  Level Estimated
09:40PM 31.7690 109.9542 340° North  Level Estimated
09:41PM 31.8682 109.9110 340° North  Level Estimated
09:42PM 31.9674 109.8677 340° North  Level Estimated
09:43PM 32.0666 109.8244 340° North  Level Estimated
09:44PM 32.1657 109.7809 340° North  Level Estimated
09:45PM 32.2649 109.7374 340° North  Level Estimated
09:46PM 32.3640 109.6937 340° North  Level Estimated
09:47PM 32.4631 109.6499 340° North  Level Estimated
09:48PM 32.5622 109.6061 340° North  Level Estimated
09:49PM 32.6613 109.5622 340° North  Level Estimated
09:50PM 32.7603 109.5181 340° North  Level Estimated
09:51PM 32.8593 109.4740 339° North  Level Estimated
09:52PM 32.9584 109.4298 339° North  Level Estimated
09:53PM 33.0574 109.3854 339° North  Level Estimated
09:54PM 33.1564 109.3410 339° North  Level Estimated
09:55PM 33.2554 109.2965 339° North  Level Estimated
09:56PM 33.3543 109.2518 339° North  Level Estimated
09:57PM 33.4533 109.2071 339° North  Level Estimated
09:58PM 33.5522 109.1623 339° North  Level Estimated
09:59PM 33.6511 109.1173 339° North  Level Estimated
10:00PM 33.7500 109.0723 339° North  Level Estimated
10:01PM 33.8489 109.0271 339° North  Level Estimated
10:02PM 33.9478 108.9819 339° North  Level Estimated
10:03PM 34.0466 108.9365 339° North  Level Estimated
10:04PM 34.1455 108.8911 339° North  Level Estimated
10:05PM 34.2443 108.8455 339° North  Level Estimated
10:06PM 34.3431 108.7998 339° North  Level Estimated
10:07PM 34.4419 108.7540 339° North  Level Estimated
10:08PM 34.4471 108.7516 339° North  Level Estimated
10:09PM 34.4471 108.7516 121° Southeast  Level Estimated
10:10PM 34.4471 108.7516 121° Southeast  Level Estimated
10:11PM 34.4471 108.7516 121° Southeast  Level Estimated
10:12PM 34.4471 108.7516 121° Southeast  Level Estimated
10:13PM 34.4471 108.7516 121° Southeast  Level Estimated
10:14PM 34.4471 108.7516 121° Southeast  Level Estimated